createdAt,value
2023-02-21T00:00:03.944Z,1.10
2023-02-21T00:01:03.889Z,1.20
2023-02-21T00:02:03.927Z,1.40
2023-02-21T00:03:03.873Z,1.50
2023-02-21T00:04:03.881Z,1.50
2023-02-21T00:05:03.908Z,1.20
2023-02-21T00:06:03.887Z,1.40
2023-02-21T00:07:03.827Z,1.60
2023-02-21T00:08:03.860Z,1.50
2023-02-21T00:09:03.810Z,1.10
2023-02-21T00:10:03.824Z,1.00
2023-02-21T00:11:03.806Z,1.30
2023-02-21T00:12:03.809Z,1.30
2023-02-21T00:13:03.774Z,1.20
2023-02-21T00:14:03.789Z,1.00
2023-02-21T00:15:03.744Z,1.20
2023-02-21T00:16:03.747Z,1.30
2023-02-21T00:17:03.732Z,1.00
2023-02-21T00:18:03.765Z,1.20
2023-02-21T00:19:03.704Z,1.30
2023-02-21T00:20:03.721Z,1.30
2023-02-21T00:21:03.683Z,1.20
2023-02-21T00:22:03.713Z,1.50
2023-02-21T00:23:03.661Z,1.20
2023-02-21T00:24:03.683Z,1.50
2023-02-21T00:25:03.653Z,1.40
2023-02-21T00:26:03.642Z,1.70
2023-02-21T00:27:03.620Z,1.40
2023-02-21T00:28:03.647Z,1.30
2023-02-21T00:29:03.597Z,1.40
2023-02-21T00:30:03.626Z,1.70
2023-02-21T00:31:03.609Z,1.60
2023-02-21T00:32:03.599Z,1.40
2023-02-21T00:33:06.068Z,2.10
2023-02-21T00:34:03.576Z,1.40
2023-02-21T00:35:03.539Z,1.30
2023-02-21T00:36:03.552Z,1.50
2023-02-21T00:37:03.529Z,1.30
2023-02-21T00:38:03.548Z,1.30
2023-02-21T00:39:03.504Z,1.40
2023-02-21T00:40:03.512Z,1.70
2023-02-21T00:41:03.479Z,1.20
2023-02-21T00:42:03.487Z,1.20
2023-02-21T00:43:03.449Z,1.40
2023-02-21T00:44:03.472Z,1.20
2023-02-21T00:45:03.442Z,1.30
2023-02-21T00:46:03.552Z,1.50
2023-02-21T00:47:03.409Z,1.40
2023-02-21T00:48:03.414Z,1.30
2023-02-21T00:49:03.390Z,1.20
2023-02-21T00:50:03.410Z,1.20
2023-02-21T00:51:03.385Z,1.10
2023-02-21T00:52:03.382Z,1.10
2023-02-21T00:53:03.342Z,1.40
2023-02-21T00:54:03.347Z,1.10
2023-02-21T00:55:03.337Z,0.90
2023-02-21T00:56:03.349Z,1.20
2023-02-21T00:57:03.298Z,1.20
2023-02-21T00:58:03.319Z,1.00
2023-02-21T00:59:03.284Z,1.40
2023-02-21T01:00:03.282Z,1.10
2023-02-21T01:01:03.331Z,1.20
2023-02-21T01:02:03.265Z,1.20
2023-02-21T01:03:03.249Z,1.10
2023-02-21T01:04:03.297Z,1.10
2023-02-21T01:05:03.220Z,1.00
2023-02-21T01:06:03.235Z,1.00
2023-02-21T01:07:03.212Z,1.10
2023-02-21T01:08:03.205Z,1.00
2023-02-21T01:09:03.198Z,1.30
2023-02-21T01:10:03.220Z,1.20
2023-02-21T01:11:03.167Z,0.90
2023-02-21T01:12:03.218Z,1.30
2023-02-21T01:13:03.143Z,0.90
2023-02-21T01:14:03.152Z,1.00
2023-02-21T01:15:03.119Z,1.20
2023-02-21T01:16:03.209Z,1.20
2023-02-21T01:17:12.520Z,1.10
2023-02-21T01:18:03.126Z,1.20
2023-02-21T01:19:03.080Z,1.30
2023-02-21T01:20:03.082Z,0.90
2023-02-21T01:21:03.055Z,1.30
2023-02-21T01:22:03.063Z,1.20
2023-02-21T01:23:03.043Z,0.90
2023-02-21T01:24:03.055Z,1.30
2023-02-21T01:25:03.026Z,1.10
2023-02-21T01:26:03.021Z,1.00
2023-02-21T01:27:02.995Z,1.30
2023-02-21T01:28:03.013Z,0.90
2023-02-21T01:29:02.977Z,1.30
2023-02-21T01:30:03.106Z,1.10
2023-02-21T01:31:03.007Z,1.20
2023-02-21T01:32:03.007Z,1.10
2023-02-21T01:33:02.953Z,1.00
2023-02-21T01:34:02.954Z,1.10
2023-02-21T01:35:02.932Z,0.90
2023-02-21T01:36:02.931Z,1.20
2023-02-21T01:37:02.892Z,0.90
2023-02-21T01:38:02.899Z,1.00
2023-02-21T01:39:02.878Z,0.90
2023-02-21T01:40:02.910Z,1.20
2023-02-21T01:41:02.858Z,1.30
2023-02-21T01:42:02.868Z,1.00
2023-02-21T01:43:02.833Z,0.90
2023-02-21T01:44:02.835Z,1.30
2023-02-21T01:45:02.812Z,1.10
2023-02-21T01:46:02.891Z,1.60
2023-02-21T01:47:02.788Z,1.30
2023-02-21T01:48:02.804Z,1.20
2023-02-21T01:49:02.769Z,1.00
2023-02-21T01:50:02.792Z,1.00
2023-02-21T01:51:02.767Z,1.00
2023-02-21T01:52:02.762Z,1.30
2023-02-21T01:53:02.730Z,1.00
2023-02-21T01:54:02.749Z,1.40
2023-02-21T01:55:02.709Z,1.60
2023-02-21T01:56:02.712Z,1.40
2023-02-21T01:57:02.696Z,1.00
2023-02-21T01:58:04.549Z,1.00
2023-02-21T01:59:02.666Z,1.70
2023-02-21T02:00:02.682Z,1.00
2023-02-21T02:01:02.667Z,1.10
2023-02-21T02:02:02.670Z,1.30
2023-02-21T02:03:02.625Z,1.00
2023-02-21T02:04:02.641Z,1.00
2023-02-21T02:05:02.607Z,1.40
2023-02-21T02:06:02.611Z,1.10
2023-02-21T02:07:02.594Z,1.10
2023-02-21T02:08:02.590Z,1.00
2023-02-21T02:09:02.570Z,0.90
2023-02-21T02:10:02.585Z,1.10
2023-02-21T02:11:02.545Z,1.20
2023-02-21T02:12:02.564Z,1.10
2023-02-21T02:13:02.543Z,1.00
2023-02-21T02:14:02.540Z,1.20
2023-02-21T02:15:02.505Z,1.40
2023-02-21T02:16:02.559Z,1.20
2023-02-21T02:17:03.726Z,1.10
2023-02-21T02:18:02.485Z,1.30
2023-02-21T02:19:02.470Z,1.50
2023-02-21T02:20:02.484Z,1.00
2023-02-21T02:21:02.438Z,1.00
2023-02-21T02:22:02.444Z,1.20
2023-02-21T02:23:02.418Z,1.10
2023-02-21T02:24:02.467Z,1.10
2023-02-21T02:25:02.408Z,1.10
2023-02-21T02:26:02.417Z,1.00
2023-02-21T02:27:02.375Z,1.20
2023-02-21T02:28:02.396Z,1.10
2023-02-21T02:29:02.360Z,1.10
2023-02-21T02:30:02.382Z,1.20
2023-02-21T02:31:02.435Z,0.90
2023-02-21T02:32:02.449Z,1.30
2023-02-21T02:33:02.315Z,1.50
2023-02-21T02:34:02.330Z,1.20
2023-02-21T02:35:02.298Z,1.10
2023-02-21T02:36:02.311Z,1.20
2023-02-21T02:37:02.275Z,1.10
2023-02-21T02:38:02.281Z,0.90
2023-02-21T02:39:02.261Z,1.20
2023-02-21T02:40:02.270Z,1.00
2023-02-21T02:41:02.232Z,1.20
2023-02-21T02:42:02.268Z,1.00
2023-02-21T02:43:02.212Z,1.10
2023-02-21T02:44:02.237Z,1.10
2023-02-21T02:45:02.202Z,1.20
2023-02-21T02:46:02.263Z,1.40
2023-02-21T02:47:02.183Z,1.40
2023-02-21T02:48:02.192Z,1.10
2023-02-21T02:49:02.148Z,1.00
2023-02-21T02:50:02.164Z,1.70
2023-02-21T02:51:02.124Z,1.10
2023-02-21T02:52:02.141Z,1.40
2023-02-21T02:53:02.105Z,1.20
2023-02-21T02:54:02.130Z,1.40
2023-02-21T02:55:02.082Z,1.30
2023-02-21T02:56:02.090Z,1.00
2023-02-21T02:57:02.090Z,1.10
2023-02-21T02:58:02.088Z,1.10
2023-02-21T02:59:02.046Z,1.40
2023-02-21T03:00:02.075Z,1.10
2023-02-21T03:01:02.035Z,1.10
2023-02-21T03:02:02.042Z,1.10
2023-02-21T03:03:02.008Z,1.10
2023-02-21T03:04:02.011Z,1.20
2023-02-21T03:05:01.988Z,1.10
2023-02-21T03:06:01.985Z,1.20
2023-02-21T03:07:01.979Z,1.00
2023-02-21T03:08:01.974Z,1.20
2023-02-21T03:09:01.935Z,1.40
2023-02-21T03:10:01.954Z,1.10
2023-02-21T03:11:01.928Z,1.20
2023-02-21T03:12:01.933Z,1.10
2023-02-21T03:13:02.507Z,1.70
2023-02-21T03:14:01.908Z,1.10
2023-02-21T03:15:01.869Z,1.50
2023-02-21T03:16:01.921Z,1.50
2023-02-21T03:17:01.847Z,1.20
2023-02-21T03:18:01.870Z,1.40
2023-02-21T03:19:01.830Z,1.30
2023-02-21T03:20:01.847Z,1.50
2023-02-21T03:21:01.822Z,1.20
2023-02-21T03:22:01.821Z,1.30
2023-02-21T03:23:01.796Z,0.70
2023-02-21T03:24:01.802Z,1.10
2023-02-21T03:25:01.771Z,1.40
2023-02-21T03:26:01.782Z,1.30
2023-02-21T03:27:01.746Z,1.00
2023-02-21T03:28:01.780Z,1.00
2023-02-21T03:29:01.723Z,0.90
2023-02-21T03:30:01.753Z,1.60
2023-02-21T03:31:01.780Z,1.20
2023-02-21T03:32:01.740Z,1.30
2023-02-21T03:33:01.696Z,1.20
2023-02-21T03:34:01.691Z,1.00
2023-02-21T03:35:01.673Z,1.40
2023-02-21T03:36:01.665Z,1.20
2023-02-21T03:37:01.689Z,1.10
2023-02-21T03:38:01.648Z,1.30
2023-02-21T03:39:01.618Z,0.90
2023-02-21T03:40:01.648Z,1.20
2023-02-21T03:41:01.604Z,1.30
2023-02-21T03:42:01.609Z,1.10
2023-02-21T03:43:01.576Z,1.10
2023-02-21T03:44:01.610Z,1.00
2023-02-21T03:45:01.577Z,1.30
2023-02-21T03:46:01.586Z,1.20
2023-02-21T03:47:01.540Z,0.90
2023-02-21T03:48:01.554Z,1.30
2023-02-21T03:49:01.521Z,1.30
2023-02-21T03:50:01.559Z,1.20
2023-02-21T03:51:01.494Z,1.20
2023-02-21T03:52:01.497Z,1.00
2023-02-21T03:53:01.476Z,1.00
2023-02-21T03:54:01.503Z,1.10
2023-02-21T03:55:01.468Z,1.30
2023-02-21T03:56:01.454Z,1.10
2023-02-21T03:57:01.464Z,1.10
2023-02-21T03:58:01.435Z,1.20
2023-02-21T03:59:01.466Z,1.30
2023-02-21T04:00:01.419Z,1.20
2023-02-21T04:01:01.487Z,1.10
2023-02-21T04:02:01.411Z,1.00
2023-02-21T04:03:01.392Z,1.40
2023-02-21T04:04:01.369Z,1.30
2023-02-21T04:05:01.380Z,1.40
2023-02-21T04:06:01.342Z,1.20
2023-02-21T04:07:01.363Z,1.20
2023-02-21T04:08:01.341Z,1.20
2023-02-21T04:09:01.332Z,1.00
2023-02-21T04:10:01.309Z,1.50
2023-02-21T04:11:01.314Z,1.30
2023-02-21T04:12:01.288Z,1.10
2023-02-21T04:13:01.293Z,1.00
2023-02-21T04:14:01.275Z,1.40
2023-02-21T04:15:01.268Z,1.10
2023-02-21T04:16:01.268Z,1.40
2023-02-21T04:17:01.268Z,1.10
2023-02-21T04:18:01.238Z,1.60
2023-02-21T04:19:01.229Z,1.50
2023-02-21T04:20:01.202Z,1.00
2023-02-21T04:21:01.223Z,1.10
2023-02-21T04:22:01.183Z,1.30
2023-02-21T04:23:03.499Z,1.30
2023-02-21T04:24:01.161Z,1.70
2023-02-21T04:25:01.168Z,1.70
2023-02-21T04:26:01.143Z,1.60
2023-02-21T04:27:01.149Z,1.40
2023-02-21T04:28:01.124Z,1.40
2023-02-21T04:29:01.132Z,1.60
2023-02-21T04:30:01.111Z,1.30
2023-02-21T04:31:01.119Z,1.20
2023-02-21T04:32:01.330Z,1.30
2023-02-21T04:33:01.097Z,1.30
2023-02-21T04:34:11.376Z,1.30
2023-02-21T04:35:01.081Z,1.10
2023-02-21T04:36:01.038Z,1.30
2023-02-21T04:37:01.057Z,1.40
2023-02-21T04:38:01.029Z,1.50
2023-02-21T04:39:01.021Z,1.20
2023-02-21T04:40:00.996Z,1.40
2023-02-21T04:41:01.027Z,1.20
2023-02-21T04:42:00.972Z,1.30
2023-02-21T04:43:00.980Z,1.50
2023-02-21T04:44:00.956Z,1.50
2023-02-21T04:45:01.087Z,1.10
2023-02-21T04:46:00.988Z,1.50
2023-02-21T04:47:00.937Z,1.50
2023-02-21T04:48:00.918Z,1.70
2023-02-21T04:49:00.935Z,1.40
2023-02-21T04:50:00.934Z,1.50
2023-02-21T04:51:14.787Z,1.30
2023-02-21T04:52:00.887Z,1.30
2023-02-21T04:53:00.876Z,1.10
2023-02-21T04:54:00.867Z,1.00
2023-02-21T04:55:00.896Z,1.40
2023-02-21T04:56:00.839Z,1.10
2023-02-21T04:57:00.860Z,1.30
2023-02-21T04:58:00.815Z,1.10
2023-02-21T04:59:00.847Z,1.40
2023-02-21T05:00:00.793Z,1.00
2023-02-21T05:01:00.863Z,1.00
2023-02-21T05:02:02.840Z,0.90
2023-02-21T05:03:00.786Z,1.00
2023-02-21T05:04:00.796Z,1.10
2023-02-21T05:05:00.790Z,1.10
2023-02-21T05:06:00.744Z,1.00
2023-02-21T05:07:00.729Z,1.00
2023-02-21T05:08:07.192Z,1.00
2023-02-21T05:09:00.708Z,1.00
2023-02-21T05:10:00.682Z,1.40
2023-02-21T05:11:00.698Z,1.20
2023-02-21T05:12:00.672Z,1.20
2023-02-21T05:13:00.685Z,1.20
2023-02-21T05:14:00.642Z,1.70
2023-02-21T05:15:00.654Z,1.20
2023-02-21T05:16:00.628Z,1.20
2023-02-21T05:17:00.651Z,1.70
2023-02-21T05:18:00.617Z,1.10
2023-02-21T05:19:00.604Z,1.20
2023-02-21T05:20:00.597Z,1.20
2023-02-21T05:21:01.357Z,2.00
2023-02-21T05:22:00.555Z,1.20
2023-02-21T05:23:08.215Z,1.00
2023-02-21T05:24:00.559Z,1.50
2023-02-21T05:25:00.556Z,1.50
2023-02-21T05:26:00.517Z,1.70
2023-02-21T05:27:00.527Z,1.50
2023-02-21T05:28:00.512Z,1.10
2023-02-21T05:29:00.505Z,1.40
2023-02-21T05:30:00.484Z,1.40
2023-02-21T05:31:01.179Z,1.80
2023-02-21T05:32:00.497Z,1.80
2023-02-21T05:33:00.476Z,2.10
2023-02-21T05:34:00.468Z,2.40
2023-02-21T05:35:00.491Z,2.30
2023-02-21T05:36:00.417Z,2.20
2023-02-21T05:37:00.438Z,1.50
2023-02-21T05:38:00.433Z,1.70
2023-02-21T05:39:00.444Z,2.10
2023-02-21T05:40:00.413Z,2.20
2023-02-21T05:41:00.389Z,1.70
2023-02-21T05:42:00.346Z,1.70
2023-02-21T05:43:00.359Z,1.80
2023-02-21T05:44:00.343Z,2.00
2023-02-21T05:45:00.350Z,1.50
2023-02-21T05:46:00.273Z,1.40
2023-02-21T05:47:00.338Z,1.60
2023-02-21T05:48:00.354Z,2.00
2023-02-21T05:49:00.271Z,1.50
2023-02-21T05:50:00.249Z,1.40
2023-02-21T05:51:00.286Z,1.90
2023-02-21T05:52:00.259Z,1.80
2023-02-21T05:53:00.252Z,1.60
2023-02-21T05:54:00.229Z,1.60
2023-02-21T05:55:00.195Z,2.00
2023-02-21T05:56:00.180Z,2.00
2023-02-21T05:57:00.166Z,1.50
2023-02-21T05:58:00.125Z,1.50
2023-02-21T05:59:00.131Z,2.30
2023-02-21T06:00:00.160Z,1.90
2023-02-21T06:01:00.128Z,2.30
2023-02-21T06:02:00.186Z,2.20
2023-02-21T06:03:00.214Z,2.20
2023-02-21T06:04:00.070Z,2.10
2023-02-21T06:05:00.097Z,2.30
2023-02-21T06:06:00.100Z,2.10
2023-02-21T06:07:00.092Z,2.30
2023-02-21T06:08:00.021Z,1.70
2023-02-21T06:09:00.027Z,1.90
2023-02-21T06:10:00.013Z,1.60
2023-02-21T06:11:00.045Z,1.90
2023-02-21T06:11:59.980Z,1.90
2023-02-21T06:12:59.983Z,1.50
2023-02-21T06:13:59.959Z,1.60
2023-02-21T06:14:59.977Z,1.80
2023-02-21T06:15:59.975Z,1.70
2023-02-21T06:16:59.964Z,2.00
2023-02-21T06:17:59.914Z,2.10
2023-02-21T06:18:59.919Z,1.50
2023-02-21T06:19:59.892Z,1.60
2023-02-21T06:20:59.908Z,1.80
2023-02-21T06:21:59.888Z,1.40
2023-02-21T06:22:59.890Z,1.50
2023-02-21T06:23:59.852Z,1.60
2023-02-21T06:24:59.855Z,1.40
2023-02-21T06:25:59.828Z,1.40
2023-02-21T06:26:59.864Z,1.80
2023-02-21T06:27:59.810Z,1.80
2023-02-21T06:28:59.833Z,1.40
2023-02-21T06:29:59.797Z,1.90
2023-02-21T06:30:59.835Z,1.80
2023-02-21T06:31:59.827Z,1.90
2023-02-21T06:32:59.778Z,1.00
2023-02-21T06:33:59.752Z,1.70
2023-02-21T06:34:59.761Z,1.50
2023-02-21T06:35:59.736Z,1.70
2023-02-21T06:36:59.736Z,1.40
2023-02-21T06:37:59.747Z,1.70
2023-02-21T06:38:59.723Z,1.40
2023-02-21T06:39:59.697Z,1.20
2023-02-21T06:40:59.714Z,1.40
2023-02-21T06:41:59.674Z,1.40
2023-02-21T06:42:59.690Z,2.20
2023-02-21T06:43:59.656Z,1.30
2023-02-21T06:44:59.660Z,1.30
2023-02-21T06:45:59.715Z,1.60
2023-02-21T06:46:59.649Z,1.60
2023-02-21T06:47:59.612Z,2.10
2023-02-21T06:48:59.639Z,2.40
2023-02-21T06:49:59.590Z,1.80
2023-02-21T06:50:59.595Z,1.80
2023-02-21T06:51:59.572Z,2.10
2023-02-21T06:52:59.576Z,2.00
2023-02-21T06:53:59.554Z,2.40
2023-02-21T06:54:59.564Z,1.80
2023-02-21T06:55:59.526Z,2.00
2023-02-21T06:56:59.549Z,2.60
2023-02-21T06:57:59.504Z,2.50
2023-02-21T06:58:59.546Z,2.30
2023-02-21T06:59:59.508Z,2.40
2023-02-21T07:00:59.500Z,2.20
2023-02-21T07:01:59.545Z,2.00
2023-02-21T07:02:59.488Z,2.20
2023-02-21T07:03:59.460Z,2.30
2023-02-21T07:04:59.501Z,2.30
2023-02-21T07:05:59.422Z,2.50
2023-02-21T07:06:59.431Z,2.80
2023-02-21T07:07:59.399Z,2.30
2023-02-21T07:08:59.442Z,2.80
2023-02-21T07:09:59.400Z,2.60
2023-02-21T07:10:59.412Z,2.60
2023-02-21T07:11:59.406Z,2.80
2023-02-21T07:12:59.374Z,2.00
2023-02-21T07:13:59.354Z,2.10
2023-02-21T07:14:59.361Z,2.40
2023-02-21T07:15:59.470Z,2.20
2023-02-21T07:16:59.341Z,2.00
2023-02-21T07:17:59.295Z,2.10
2023-02-21T07:18:59.301Z,2.30
2023-02-21T07:19:59.277Z,2.20
2023-02-21T07:20:59.299Z,2.20
2023-02-21T07:21:59.248Z,2.00
2023-02-21T07:22:59.276Z,2.40
2023-02-21T07:23:59.229Z,1.70
2023-02-21T07:24:59.272Z,2.30
2023-02-21T07:25:59.219Z,2.20
2023-02-21T07:26:59.217Z,1.90
2023-02-21T07:27:59.195Z,2.50
2023-02-21T07:28:59.237Z,2.50
2023-02-21T07:29:59.171Z,2.60
2023-02-21T07:30:59.216Z,2.20
2023-02-21T07:31:59.265Z,2.40
2023-02-21T07:32:59.159Z,2.00
2023-02-21T07:33:59.132Z,2.00
2023-02-21T07:34:59.123Z,2.30
2023-02-21T07:35:59.101Z,2.30
2023-02-21T07:36:59.132Z,2.20
2023-02-21T07:37:59.089Z,2.60
2023-02-21T07:38:59.102Z,2.20
2023-02-21T07:39:59.056Z,2.40
2023-02-21T07:40:59.059Z,2.30
2023-02-21T07:41:59.046Z,2.20
2023-02-21T07:42:59.055Z,2.00
2023-02-21T07:43:59.019Z,2.30
2023-02-21T07:44:59.047Z,2.30
2023-02-21T07:45:59.001Z,1.90
2023-02-21T07:46:59.013Z,2.00
2023-02-21T07:47:58.988Z,1.90
2023-02-21T07:48:58.996Z,1.80
2023-02-21T07:49:58.962Z,2.10
2023-02-21T07:50:58.965Z,2.10
2023-02-21T07:51:58.933Z,1.70
2023-02-21T07:52:58.935Z,2.30
2023-02-21T07:53:58.925Z,1.90
2023-02-21T07:54:58.925Z,1.90
2023-02-21T07:55:58.887Z,2.10
2023-02-21T07:56:58.906Z,2.10
2023-02-21T07:57:58.900Z,1.80
2023-02-21T07:58:58.886Z,2.40
2023-02-21T07:59:58.856Z,1.80
2023-02-21T08:00:58.866Z,2.50
2023-02-21T08:01:58.894Z,1.90
2023-02-21T08:02:58.848Z,2.40
2023-02-21T08:03:58.809Z,2.00
2023-02-21T08:04:58.851Z,2.10
2023-02-21T08:05:58.784Z,2.30
2023-02-21T08:06:58.788Z,2.30
2023-02-21T08:07:58.759Z,2.10
2023-02-21T08:08:58.778Z,2.30
2023-02-21T08:09:58.752Z,2.00
2023-02-21T08:10:58.728Z,2.10
2023-02-21T08:11:58.744Z,2.00
2023-02-21T08:12:58.706Z,2.30
2023-02-21T08:13:58.744Z,2.10
2023-02-21T08:14:58.686Z,1.90
2023-02-21T08:15:58.735Z,2.10
2023-02-21T08:16:58.669Z,2.60
2023-02-21T08:17:58.683Z,2.40
2023-02-21T08:18:58.660Z,2.50
2023-02-21T08:19:58.660Z,2.00
2023-02-21T08:20:58.623Z,2.20
2023-02-21T08:21:58.644Z,2.40
2023-02-21T08:22:58.601Z,2.60
2023-02-21T08:23:58.608Z,2.30
2023-02-21T08:24:58.594Z,2.20
2023-02-21T08:25:58.579Z,2.10
2023-02-21T08:26:58.569Z,2.30
2023-02-21T08:27:58.571Z,2.10
2023-02-21T08:28:58.553Z,2.10
2023-02-21T08:29:58.562Z,2.20
2023-02-21T08:30:58.517Z,2.40
2023-02-21T08:31:58.537Z,2.30
2023-02-21T08:32:58.504Z,2.10
2023-02-21T08:33:58.512Z,2.40
2023-02-21T08:34:58.479Z,1.90
2023-02-21T08:35:58.472Z,2.00
2023-02-21T08:36:58.456Z,3.00
2023-02-21T08:37:58.463Z,2.10
2023-02-21T08:38:58.430Z,2.30
2023-02-21T08:39:58.444Z,2.50
2023-02-21T08:40:58.418Z,2.30
2023-02-21T08:41:58.465Z,2.40
2023-02-21T08:42:57.389Z,2.30
2023-02-21T08:43:58.387Z,2.10
2023-02-21T08:44:58.374Z,2.10
2023-02-21T08:45:58.401Z,2.40
2023-02-21T08:46:58.380Z,2.60
2023-02-21T08:47:58.345Z,2.30
2023-02-21T08:48:58.326Z,2.10
2023-02-21T08:49:58.342Z,2.50
2023-02-21T08:50:58.297Z,2.40
2023-02-21T08:51:58.314Z,2.20
2023-02-21T08:52:58.285Z,2.50
2023-02-21T08:53:58.299Z,2.40
2023-02-21T08:54:58.253Z,2.10
2023-02-21T08:55:58.275Z,2.00
2023-02-21T08:56:58.233Z,2.00
2023-02-21T08:57:58.250Z,2.50
2023-02-21T08:58:58.234Z,2.10
2023-02-21T08:59:58.221Z,2.10
2023-02-21T09:00:58.259Z,2.10
2023-02-21T09:01:58.226Z,2.30
2023-02-21T09:02:58.185Z,2.40
2023-02-21T09:03:58.184Z,2.50
2023-02-21T09:04:58.149Z,2.40
2023-02-21T09:05:58.148Z,2.30
2023-02-21T09:06:58.133Z,2.20
2023-02-21T09:07:58.158Z,2.40
2023-02-21T09:08:58.124Z,2.60
2023-02-21T09:10:00.157Z,2.60
2023-02-21T09:10:58.182Z,2.40
2023-02-21T09:11:58.098Z,2.20
2023-02-21T09:12:58.079Z,2.50
2023-02-21T09:13:58.073Z,2.60
2023-02-21T09:14:58.044Z,2.00
2023-02-21T09:15:58.061Z,2.50
2023-02-21T09:16:58.014Z,2.50
2023-02-21T09:17:58.025Z,2.20
2023-02-21T09:18:57.995Z,2.20
2023-02-21T09:19:57.996Z,2.30
2023-02-21T09:20:57.986Z,2.40
2023-02-21T09:21:59.729Z,2.10
2023-02-21T09:22:57.965Z,2.30
2023-02-21T09:23:57.970Z,2.50
2023-02-21T09:24:57.932Z,2.30
2023-02-21T09:25:57.934Z,2.60
2023-02-21T09:26:57.922Z,2.10
2023-02-21T09:27:57.947Z,2.20
2023-02-21T09:28:57.892Z,2.30
2023-02-21T09:29:57.908Z,2.20
2023-02-21T09:30:57.868Z,2.50
2023-02-21T09:31:57.938Z,2.20
2023-02-21T09:32:57.851Z,2.50
2023-02-21T09:33:57.860Z,2.50
2023-02-21T09:34:57.822Z,2.50
2023-02-21T09:35:57.841Z,2.50
2023-02-21T09:36:57.806Z,2.40
2023-02-21T09:37:57.833Z,2.10
2023-02-21T09:38:59.116Z,2.30
2023-02-21T09:39:57.802Z,1.90
2023-02-21T09:40:57.766Z,2.10
2023-02-21T09:41:57.769Z,2.20
2023-02-21T09:42:57.740Z,2.30
2023-02-21T09:43:57.782Z,2.40
2023-02-21T09:44:57.728Z,2.60
2023-02-21T09:45:57.766Z,2.50
2023-02-21T09:46:57.715Z,2.10
2023-02-21T09:47:57.717Z,2.40
2023-02-21T09:48:57.682Z,2.60
2023-02-21T09:49:57.696Z,2.50
2023-02-21T09:50:57.665Z,2.40
2023-02-21T09:51:57.678Z,2.10
2023-02-21T09:52:57.654Z,2.10
2023-02-21T09:53:57.788Z,2.10
2023-02-21T09:54:57.618Z,2.30
2023-02-21T09:55:57.636Z,2.40
2023-02-21T09:56:57.593Z,2.20
2023-02-21T09:57:57.602Z,2.50
2023-02-21T09:58:57.592Z,2.10
2023-02-21T09:59:57.596Z,2.10
2023-02-21T10:00:57.694Z,2.50
2023-02-21T10:01:57.581Z,2.20
2023-02-21T10:02:57.538Z,2.60
2023-02-21T10:03:57.530Z,2.60
2023-02-21T10:04:57.639Z,2.60
2023-02-21T10:05:57.525Z,2.30
2023-02-21T10:06:57.504Z,2.20
2023-02-21T10:07:57.494Z,2.40
2023-02-21T10:08:57.465Z,2.30
2023-02-21T10:09:57.479Z,2.10
2023-02-21T10:10:57.458Z,2.00
2023-02-21T10:11:57.473Z,2.10
2023-02-21T10:12:57.438Z,2.30
2023-02-21T10:13:57.433Z,2.00
2023-02-21T10:14:57.416Z,2.20
2023-02-21T10:15:57.425Z,2.00
2023-02-21T10:16:57.402Z,2.00
2023-02-21T10:17:57.382Z,1.90
2023-02-21T10:18:57.370Z,2.20
2023-02-21T10:19:57.376Z,1.70
2023-02-21T10:20:57.338Z,1.90
2023-02-21T10:21:57.349Z,2.20
2023-02-21T10:22:57.355Z,2.30
2023-02-21T10:23:57.318Z,1.90
2023-02-21T10:24:57.291Z,2.10
2023-02-21T10:25:57.309Z,2.20
2023-02-21T10:26:57.280Z,2.00
2023-02-21T10:27:57.303Z,2.40
2023-02-21T10:28:57.368Z,2.00
2023-02-21T10:29:57.280Z,2.10
2023-02-21T10:30:57.310Z,2.10
2023-02-21T10:31:57.303Z,2.40
2023-02-21T10:32:57.233Z,2.30
2023-02-21T10:33:57.302Z,1.90
2023-02-21T10:34:57.189Z,1.80
2023-02-21T10:35:57.201Z,2.20
2023-02-21T10:36:57.204Z,1.90
2023-02-21T10:37:57.182Z,2.10
2023-02-21T10:38:57.169Z,2.10
2023-02-21T10:39:57.163Z,2.20
2023-02-21T10:40:57.125Z,2.00
2023-02-21T10:41:57.128Z,2.00
2023-02-21T10:42:57.124Z,1.80
2023-02-21T10:43:57.129Z,2.40
2023-02-21T10:44:57.100Z,1.90
2023-02-21T10:45:57.132Z,2.10
2023-02-21T10:46:57.070Z,2.00
2023-02-21T10:47:57.071Z,1.80
2023-02-21T10:48:57.059Z,1.80
2023-02-21T10:49:57.069Z,2.00
2023-02-21T10:50:57.025Z,1.80
2023-02-21T10:51:57.022Z,2.00
2023-02-21T10:52:57.018Z,2.20
2023-02-21T10:53:57.018Z,2.00
2023-02-21T10:54:56.976Z,1.70
2023-02-21T10:55:56.982Z,1.70
2023-02-21T10:56:56.978Z,1.70
2023-02-21T10:57:56.981Z,2.00
2023-02-21T10:58:56.937Z,1.70
2023-02-21T10:59:56.951Z,1.70
2023-02-21T11:00:56.943Z,1.90
2023-02-21T11:01:56.923Z,1.80
2023-02-21T11:02:56.897Z,2.00
2023-02-21T11:03:56.914Z,2.00
2023-02-21T11:04:56.884Z,1.70
2023-02-21T11:05:56.897Z,1.90
2023-02-21T11:06:56.854Z,1.50
2023-02-21T11:07:56.871Z,1.60
2023-02-21T11:08:56.828Z,1.40
2023-02-21T11:09:56.850Z,1.80
2023-02-21T11:10:56.816Z,1.90
2023-02-21T11:11:56.816Z,1.90
2023-02-21T11:12:56.792Z,1.40
2023-02-21T11:13:56.809Z,1.80
2023-02-21T11:14:56.770Z,1.80
2023-02-21T11:15:56.843Z,1.40
2023-02-21T11:16:56.753Z,1.40
2023-02-21T11:17:56.752Z,1.60
2023-02-21T11:18:56.727Z,1.90
2023-02-21T11:19:56.750Z,1.70
2023-02-21T11:20:56.714Z,1.90
2023-02-21T11:21:56.733Z,1.90
2023-02-21T11:22:56.692Z,1.70
2023-02-21T11:23:56.708Z,1.60
2023-02-21T11:24:56.670Z,1.60
2023-02-21T11:25:56.665Z,1.50
2023-02-21T11:26:56.647Z,1.70
2023-02-21T11:27:56.679Z,1.50
2023-02-21T11:28:56.618Z,1.50
2023-02-21T11:29:56.625Z,1.80
2023-02-21T11:30:56.630Z,1.40
2023-02-21T11:31:56.636Z,1.40
2023-02-21T11:32:57.150Z,1.40
2023-02-21T11:33:56.603Z,1.30
2023-02-21T11:34:56.624Z,0.90
2023-02-21T11:35:56.558Z,1.40
2023-02-21T11:36:56.534Z,1.40
2023-02-21T11:37:56.643Z,1.30
2023-02-21T11:38:56.517Z,1.60
2023-02-21T11:39:56.532Z,2.00
2023-02-21T11:40:56.494Z,1.60
2023-02-21T11:41:56.524Z,1.70
2023-02-21T11:42:56.470Z,1.70
2023-02-21T11:43:56.500Z,1.40
2023-02-21T11:44:56.460Z,1.70
2023-02-21T11:45:56.476Z,1.60
2023-02-21T11:46:56.447Z,2.00
2023-02-21T11:47:56.459Z,1.60
2023-02-21T11:48:56.404Z,1.50
2023-02-21T11:49:56.423Z,1.60
2023-02-21T11:50:56.387Z,1.80
2023-02-21T11:51:56.405Z,1.90
2023-02-21T11:52:56.366Z,1.90
2023-02-21T11:53:56.382Z,1.60
2023-02-21T11:54:56.376Z,1.50
2023-02-21T11:55:56.357Z,1.80
2023-02-21T11:56:56.321Z,1.80
2023-02-21T11:57:56.344Z,1.80
2023-02-21T11:58:56.302Z,1.50
2023-02-21T11:59:56.315Z,1.40
2023-02-21T12:00:56.295Z,1.70
2023-02-21T12:01:56.305Z,1.60
2023-02-21T12:02:56.249Z,1.60
2023-02-21T12:03:56.281Z,1.30
2023-02-21T12:04:56.235Z,1.50
2023-02-21T12:05:56.290Z,1.60
2023-02-21T12:06:56.246Z,1.50
2023-02-21T12:07:56.236Z,1.80
2023-02-21T12:08:56.208Z,1.30
2023-02-21T12:09:56.218Z,1.40
2023-02-21T12:10:56.181Z,1.80
2023-02-21T12:11:56.176Z,1.50
2023-02-21T12:12:56.164Z,1.50
2023-02-21T12:13:56.164Z,1.10
2023-02-21T12:14:56.133Z,1.20
2023-02-21T12:15:56.156Z,1.00
2023-02-21T12:16:56.116Z,1.30
2023-02-21T12:17:56.123Z,1.80
2023-02-21T12:18:56.100Z,1.30
2023-02-21T12:19:56.136Z,1.30
2023-02-21T12:20:56.065Z,1.70
2023-02-21T12:21:56.067Z,1.30
2023-02-21T12:22:56.051Z,1.30
2023-02-21T12:23:56.075Z,1.20
2023-02-21T12:24:56.106Z,1.30
2023-02-21T12:25:56.013Z,1.10
2023-02-21T12:26:56.021Z,1.10
2023-02-21T12:27:56.005Z,1.50
2023-02-21T12:28:56.023Z,1.20
2023-02-21T12:29:55.973Z,1.50
2023-02-21T12:30:56.028Z,1.50
2023-02-21T12:31:56.162Z,1.30
2023-02-21T12:32:55.981Z,1.40
2023-02-21T12:33:55.944Z,1.40
2023-02-21T12:34:55.941Z,1.50
2023-02-21T12:35:55.933Z,1.50
2023-02-21T12:36:55.931Z,1.30
2023-02-21T12:37:55.886Z,1.10
2023-02-21T12:38:55.901Z,1.00
2023-02-21T12:39:55.890Z,1.00
2023-02-21T12:40:55.896Z,1.00
2023-02-21T12:41:55.866Z,1.30
2023-02-21T12:42:55.877Z,1.10
2023-02-21T12:43:55.829Z,1.30
2023-02-21T12:44:55.828Z,0.90
2023-02-21T12:45:55.821Z,1.00
2023-02-21T12:46:55.830Z,1.30
2023-02-21T12:47:55.804Z,1.20
2023-02-21T12:48:55.788Z,1.10
2023-02-21T12:49:55.783Z,1.20
2023-02-21T12:50:55.779Z,1.50
2023-02-21T12:51:55.742Z,1.30
2023-02-21T12:52:55.762Z,0.90
2023-02-21T12:53:55.722Z,1.20
2023-02-21T12:54:55.731Z,1.20
2023-02-21T12:55:55.710Z,1.10
2023-02-21T12:56:55.723Z,1.00
2023-02-21T12:57:55.685Z,0.80
2023-02-21T12:58:55.695Z,0.80
2023-02-21T12:59:55.701Z,1.00
2023-02-21T13:00:55.697Z,1.00
2023-02-21T13:01:55.651Z,1.10
2023-02-21T13:02:55.750Z,0.90
2023-02-21T13:03:55.628Z,0.90
2023-02-21T13:04:55.621Z,0.90
2023-02-21T13:05:55.603Z,0.60
2023-02-21T13:06:55.623Z,0.90
2023-02-21T13:07:55.566Z,0.90
2023-02-21T13:08:55.573Z,1.10
2023-02-21T13:09:55.553Z,0.90
2023-02-21T13:10:55.566Z,1.10
2023-02-21T13:11:55.543Z,0.90
2023-02-21T13:12:55.538Z,1.10
2023-02-21T13:13:55.517Z,1.00
2023-02-21T13:14:55.531Z,0.90
2023-02-21T13:15:55.518Z,1.00
2023-02-21T13:16:55.485Z,0.90
2023-02-21T13:17:55.465Z,1.00